Time;durP1;ratioP1;P1;durP2;ratioP2;P2;SDS_P1;SDS_P2;PMS_P1;PMS_P2;Temp;Humidity;BMP_temperature;BMP_pressure;BME280_temperature;BME280_humidity;BME280_pressure;Samples;Min_cycle;Max_cycle;Signal;HPM_P1;HPM_P2
2021/03/27 00:04:53;;;;;;;56.8;46.6;;;;;;;2.86;100;99040.71;;;;
2021/03/27 00:14:52;;;;;;;67.2;45.6;;;;;;;3.02;100;99036.38;;;;
2021/03/27 00:24:49;;;;;;;71.5;55.7;;;;;;;2.72;100;99049.28;;;;
2021/03/27 00:34:47;;;;;;;82;70.2;;;;;;;2.67;100;99047.38;;;;
2021/03/27 00:44:44;;;;;;;98.1;78.6;;;;;;;2.64;100;99039.86;;;;
2021/03/27 00:54:42;;;;;;;109.3;72.5;;;;;;;2.73;100;99027.77;;;;
2021/03/27 01:04:40;;;;;;;91.9;73.3;;;;;;;2.77;100;99026.23;;;;
2021/03/27 01:14:38;;;;;;;82.8;63;;;;;;;2.78;100;99013.7;;;;
2021/03/27 01:24:36;;;;;;;89.9;70.6;;;;;;;2.74;100;99004.63;;;;
2021/03/27 01:34:33;;;;;;;74.2;60.5;;;;;;;2.49;100;98981.14;;;;
2021/03/27 01:44:31;;;;;;;81.8;58.4;;;;;;;2.48;100;98998.95;;;;
2021/03/27 01:54:29;;;;;;;61.2;54.5;;;;;;;2.51;100;98992.33;;;;
2021/03/27 02:04:27;;;;;;;67.2;50.4;;;;;;;2.31;100;98994.7;;;;
2021/03/27 02:14:24;;;;;;;63.6;49.4;;;;;;;2.29;100;98986.18;;;;
2021/03/27 02:24:22;;;;;;;66.1;49.4;;;;;;;2.31;100;98979.56;;;;
2021/03/27 02:34:20;;;;;;;57.7;46.8;;;;;;;2.34;100;98967.62;;;;
2021/03/27 02:44:17;;;;;;;55.6;43.2;;;;;;;2.25;100;98963.78;;;;
2021/03/27 02:54:15;;;;;;;52.5;39.6;;;;;;;2.13;100;98966.52;;;;
2021/03/27 03:04:13;;;;;;;47.6;42.4;;;;;;;1.88;100;98964.28;;;;
2021/03/27 03:14:10;;;;;;;52.7;40.5;;;;;;;1.64;100;98959.35;;;;
2021/03/27 03:24:08;;;;;;;60.5;44.6;;;;;;;1.37;100;98954.66;;;;
2021/03/27 03:34:06;;;;;;;53.4;43.2;;;;;;;1.32;100;98946.59;;;;
2021/03/27 03:44:03;;;;;;;59;48.2;;;;;;;1.29;100;98935.64;;;;
2021/03/27 03:54:01;;;;;;;56.3;43.2;;;;;;;1.39;100;98923.35;;;;
2021/03/27 04:03:58;;;;;;;60.5;45.5;;;;;;;1.28;100;98918.94;;;;
2021/03/27 04:13:56;;;;;;;64.9;47;;;;;;;1.16;100;98914.71;;;;
2021/03/27 04:23:53;;;;;;;59.6;43.4;;;;;;;0.99;100;98920.8;;;;
2021/03/27 04:33:51;;;;;;;54.1;45.1;;;;;;;0.85;100;98926.61;;;;
2021/03/27 04:43:48;;;;;;;51.9;41.3;;;;;;;0.77;100;98933.09;;;;
2021/03/27 04:53:46;;;;;;;55.1;42.2;;;;;;;0.84;100;98928.45;;;;
2021/03/27 05:03:43;;;;;;;53.7;41.3;;;;;;;0.99;100;98928.76;;;;
2021/03/27 05:13:41;;;;;;;65.2;44.9;;;;;;;1.15;100;98932.48;;;;
2021/03/27 05:23:38;;;;;;;68.3;51.9;;;;;;;1.47;100;98924.81;;;;
2021/03/27 05:33:36;;;;;;;63.3;53.8;;;;;;;1.89;100;98925.22;;;;
2021/03/27 05:43:34;;;;;;;69.4;56.9;;;;;;;2.43;100;98934.25;;;;
2021/03/27 05:53:50;;;;;;;87.2;65.7;;;;;;;3.36;100;98927.84;;;;
2021/03/27 06:03:37;;;;;;;75;56.1;;;;;;;4.35;100;98920.84;;;;
2021/03/27 06:13:38;;;;;;;63.3;52.5;;;;;;;5.13;100;98923.56;;;;
2021/03/27 06:23:27;;;;;;;61.2;48.9;;;;;;;5.74;99.76953;98919.89;;;;
2021/03/27 06:33:29;;;;;;;68.1;58.2;;;;;;;6.13;97.78125;98922.03;;;;
2021/03/27 06:43:42;;;;;;;74.9;63.4;;;;;;;6.52;96.98145;98901.6;;;;
2021/03/27 06:53:29;;;;;;;85.7;65.7;;;;;;;7.03;94.22559;98919.05;;;;
2021/03/27 07:03:50;;;;;;;80.4;62.5;;;;;;;7.04;93.6709;98915.3;;;;
2021/03/27 07:13:31;;;;;;;87.8;64.5;;;;;;;7.46;93.79492;98912.06;;;;
2021/03/27 07:23:48;;;;;;;71.6;55.4;;;;;;;8.39;92.00684;98916.41;;;;
2021/03/27 07:33:44;;;;;;;63;51.7;;;;;;;9.21;87.73242;98917.8;;;;
2021/03/27 07:43:11;;;;;;;60.9;49.4;;;;;;;10.11;84.48535;98891.34;;;;
2021/03/27 07:53:10;;;;;;;46.9;39.1;;;;;;;11.11;80.69629;98897.73;;;;
2021/03/27 08:03:09;;;;;;;29.8;14.8;;;;;;;12.11;69.86035;98894.55;;;;
2021/03/27 08:13:08;;;;;;;17.8;13.7;;;;;;;12.78;64.22168;98888.15;;;;
2021/03/27 08:23:06;;;;;;;19.4;13.8;;;;;;;13.46;61.33301;98887.5;;;;
2021/03/27 08:33:05;;;;;;;21.7;14.9;;;;;;;13.99;59.09863;98881.69;;;;
2021/03/27 08:43:04;;;;;;;27.7;15.4;;;;;;;14.49;56.62402;98869.13;;;;
2021/03/27 08:53:04;;;;;;;19.9;13.8;;;;;;;14.84;55.70508;98874.38;;;;
2021/03/27 09:03:03;;;;;;;16.8;15.1;;;;;;;15.24;53.51758;98866.63;;;;
2021/03/27 09:13:02;;;;;;;19.6;12.9;;;;;;;15.77;53.70801;98849.55;;;;
2021/03/27 09:23:01;;;;;;;16.6;9.3;;;;;;;16.19;48.49609;98855.66;;;;
2021/03/27 09:33:01;;;;;;;14.3;8.3;;;;;;;16.47;45.68945;98846.52;;;;
2021/03/27 09:43:00;;;;;;;11.2;8.9;;;;;;;16.76;41.34961;98839.3;;;;
2021/03/27 09:52:59;;;;;;;12.7;8.5;;;;;;;16.84;39.4834;98847.33;;;;
2021/03/27 10:02:59;;;;;;;10.5;7.2;;;;;;;17.01;37.35645;98841.63;;;;
2021/03/27 10:12:58;;;;;;;11.1;8;;;;;;;17.35;36.74707;98839.52;;;;
2021/03/27 10:22:59;;;;;;;10.6;7.8;;;;;;;17.64;35.93555;98847.37;;;;
2021/03/27 10:32:57;;;;;;;14.7;10.2;;;;;;;17.48;34.93652;98839.13;;;;
2021/03/27 10:42:57;;;;;;;9.9;6.8;;;;;;;17.39;35.79883;98837.69;;;;
2021/03/27 10:52:56;;;;;;;10.8;7;;;;;;;17.23;36.59668;98839.54;;;;
2021/03/27 11:02:56;;;;;;;8.9;6.5;;;;;;;17.53;36.37988;98819.78;;;;
2021/03/27 11:12:55;;;;;;;11.7;6.5;;;;;;;18.02;32.78125;98835.92;;;;
2021/03/27 11:22:55;;;;;;;15.9;6.5;;;;;;;17.81;33.99805;98830.7;;;;
2021/03/27 11:32:55;;;;;;;9.7;5.9;;;;;;;18.21;33.05078;98832.52;;;;
2021/03/27 11:42:54;;;;;;;9.7;6.5;;;;;;;18.25;34.46191;98823.3;;;;
2021/03/27 11:52:54;;;;;;;11.3;7.4;;;;;;;18.54;33.82031;98824.78;;;;
2021/03/27 12:02:54;;;;;;;9.4;6.9;;;;;;;18.96;31.68555;98830.44;;;;
2021/03/27 12:12:53;;;;;;;12.2;7.3;;;;;;;18.75;33.48828;98825.29;;;;
2021/03/27 12:22:54;;;;;;;10.2;6.8;;;;;;;18.17;33.88574;98831.63;;;;
2021/03/27 12:32:53;;;;;;;8.6;6.9;;;;;;;18.37;33.61035;98834.1;;;;
2021/03/27 12:42:53;;;;;;;12.3;7.7;;;;;;;18.19;33.24707;98826.64;;;;
2021/03/27 12:52:52;;;;;;;13.4;9.7;;;;;;;17.94;33.3457;98845.88;;;;
2021/03/27 13:02:52;;;;;;;9.1;6.9;;;;;;;17.64;33.79883;98863.73;;;;
2021/03/27 13:12:52;;;;;;;10.9;7.6;;;;;;;17.57;33.93359;98864.32;;;;
2021/03/27 13:22:51;;;;;;;12.8;8.5;;;;;;;17.5;33.21875;98868.74;;;;
2021/03/27 13:32:51;;;;;;;11.9;7.7;;;;;;;17.53;32.45605;98879.74;;;;
2021/03/27 13:42:51;;;;;;;12.9;8.6;;;;;;;17.37;32.94238;98875.38;;;;
2021/03/27 13:52:50;;;;;;;15.7;9.6;;;;;;;16.98;34.01465;98885.09;;;;
2021/03/27 14:02:50;;;;;;;15.9;10.4;;;;;;;16.64;36.85059;98897.23;;;;
2021/03/27 14:12:49;;;;;;;11.9;8.5;;;;;;;16.4;38.7959;98899.91;;;;
2021/03/27 14:22:49;;;;;;;15.5;11;;;;;;;16.36;39.03613;98918.82;;;;
2021/03/27 14:32:48;;;;;;;18.3;11.5;;;;;;;16.37;39.26758;98911.46;;;;
2021/03/27 14:42:47;;;;;;;18;12.5;;;;;;;16.25;39.99707;98939.41;;;;
2021/03/27 14:52:47;;;;;;;21;11.8;;;;;;;16.23;40.98828;98924.58;;;;
2021/03/27 15:02:46;;;;;;;19.2;10.2;;;;;;;15.5;42.34961;98946;;;;
2021/03/27 15:12:46;;;;;;;21.4;12.3;;;;;;;15.13;43.80078;98947.66;;;;
2021/03/27 15:22:45;;;;;;;15.3;11.3;;;;;;;14.74;47.58984;98983.28;;;;
2021/03/27 15:32:45;;;;;;;20.5;14.2;;;;;;;14.42;49.75977;99015.27;;;;
2021/03/27 15:42:43;;;;;;;20.7;15.6;;;;;;;13.95;53.99121;99040.64;;;;
2021/03/27 15:52:43;;;;;;;16.3;14.6;;;;;;;13.55;56.36523;99083.27;;;;
2021/03/27 16:02:42;;;;;;;17.9;12.3;;;;;;;13.15;58.54004;99100.64;;;;
2021/03/27 16:12:41;;;;;;;15.6;11.8;;;;;;;12.48;63.10742;99125.01;;;;
2021/03/27 16:22:40;;;;;;;14;11.4;;;;;;;11.79;68.26465;99175.7;;;;
2021/03/27 16:32:39;;;;;;;12.2;7.5;;;;;;;11.15;67.87109;99208.97;;;;
2021/03/27 16:42:50;;;;;;;9;4.1;;;;;;;10.63;71.2168;99241.61;;;;
2021/03/27 16:52:36;;;;;;;9.2;4.8;;;;;;;10.18;77.03223;99264.57;;;;
2021/03/27 17:02:39;;;;;;;9.3;4.1;;;;;;;9.65;77.45801;99269.97;;;;
2021/03/27 17:12:33;;;;;;;8.6;5.7;;;;;;;9.27;78.92969;99266.28;;;;
2021/03/27 17:22:32;;;;;;;7.6;5.1;;;;;;;9.25;80.39941;99300.73;;;;
2021/03/27 17:32:30;;;;;;;11.1;7.1;;;;;;;8.99;86.15332;99326.99;;;;
2021/03/27 17:42:29;;;;;;;9.6;8;;;;;;;8.74;95.17676;99343.29;;;;
2021/03/27 17:52:27;;;;;;;14.8;10.9;;;;;;;8.69;100;99339.8;;;;
2021/03/27 18:02:26;;;;;;;18.6;13.5;;;;;;;8.65;100;99334.18;;;;
2021/03/27 18:12:25;;;;;;;12;8.3;;;;;;;8.61;100;99338.49;;;;
2021/03/27 18:22:23;;;;;;;22.5;12.3;;;;;;;8.55;100;99356.53;;;;
2021/03/27 18:32:21;;;;;;;13.3;11.4;;;;;;;8.59;100;99371.03;;;;
2021/03/27 18:42:20;;;;;;;12.8;8;;;;;;;8.37;97.41797;99348.27;;;;
2021/03/27 18:52:18;;;;;;;10.5;7.6;;;;;;;8.29;97.35547;99362.28;;;;
2021/03/27 19:02:17;;;;;;;10.5;6.2;;;;;;;8.09;97.30078;99371.95;;;;
2021/03/27 19:12:15;;;;;;;19.6;11.1;;;;;;;7.9;97.87012;99375.48;;;;
2021/03/27 19:22:14;;;;;;;15.8;9.5;;;;;;;7.86;99.42969;99387.83;;;;
2021/03/27 19:32:12;;;;;;;11.6;8.4;;;;;;;7.88;99.33594;99405.26;;;;
2021/03/27 19:42:11;;;;;;;10.4;7.1;;;;;;;7.82;99.16602;99411.71;;;;
2021/03/27 19:52:09;;;;;;;11.7;7.5;;;;;;;7.76;99.47461;99420.03;;;;
2021/03/27 20:02:07;;;;;;;8.8;6.2;;;;;;;7.8;98.24609;99431.84;;;;
2021/03/27 20:12:06;;;;;;;19.7;13.7;;;;;;;7.69;100;99452.5;;;;
2021/03/27 20:22:04;;;;;;;13.1;9;;;;;;;7.36;100;99450.28;;;;
2021/03/27 20:32:09;;;;;;;14.7;10.1;;;;;;;7.16;100;99460.97;;;;
2021/03/27 20:42:19;;;;;;;12.6;10.1;;;;;;;7.06;100;99465.23;;;;
2021/03/27 20:52:07;;;;;;;13.6;9.3;;;;;;;7.12;100;99484;;;;
2021/03/27 21:02:03;;;;;;;12.2;9.2;;;;;;;7.26;99.34961;99495.84;;;;
2021/03/27 21:11:56;;;;;;;13.8;8.2;;;;;;;7.26;99.9502;99490.48;;;;
2021/03/27 21:21:56;;;;;;;15.7;10.2;;;;;;;7.22;100;99495.56;;;;
2021/03/27 21:31:53;;;;;;;19.7;16.7;;;;;;;7.18;100;99489.14;;;;
2021/03/27 21:41:52;;;;;;;15;11.5;;;;;;;6.99;100;99498.7;;;;
2021/03/27 21:51:49;;;;;;;12.9;9.9;;;;;;;6.83;100;99513.1;;;;
2021/03/27 22:01:47;;;;;;;19.3;11.2;;;;;;;6.91;99.07031;99521.44;;;;
2021/03/27 22:11:46;;;;;;;12.7;8.8;;;;;;;7.04;97.96387;99544.3;;;;
2021/03/27 22:21:44;;;;;;;13.9;8.4;;;;;;;7;96.91113;99567.32;;;;
2021/03/27 22:31:42;;;;;;;19.9;14.7;;;;;;;6.73;100;99599.59;;;;
2021/03/27 22:41:41;;;;;;;17.5;14.7;;;;;;;6.33;100;99620.66;;;;
2021/03/27 22:51:39;;;;;;;18.2;15.8;;;;;;;6.13;100;99631.19;;;;
2021/03/27 23:01:37;;;;;;;19.6;13.5;;;;;;;6.04;100;99634.31;;;;
2021/03/27 23:11:35;;;;;;;12.2;10;;;;;;;5.85;100;99630.34;;;;
2021/03/27 23:21:36;;;;;;;11.8;8.8;;;;;;;5.69;100;99625.89;;;;
2021/03/27 23:31:32;;;;;;;16.6;9.1;;;;;;;5.49;100;99636.31;;;;
2021/03/27 23:41:30;;;;;;;13;10.6;;;;;;;5.43;100;99634.64;;;;
2021/03/27 23:51:28;;;;;;;12;10;;;;;;;5.21;100;99644.49;;;;
